Time;durP1;ratioP1;P1;durP2;ratioP2;P2;SDS_P1;SDS_P2;PMS_P1;PMS_P2;Temp;Humidity;BMP_temperature;BMP_pressure;BME280_temperature;BME280_humidity;BME280_pressure;Samples;Min_cycle;Max_cycle;Signal;HPM_P1;HPM_P2
2023/04/13 00:53:18;;;;;;;8.82;4.68;;;16.10;96.70;;;;;;5073647;28;20059;-74
2023/04/13 00:55:47;;;;;;;7.93;4.32;;;16.10;96.70;;;;;;5077178;28;20048;-74
2023/04/13 00:58:15;;;;;;;8.63;3.67;;;16.00;96.70;;;;;;5079186;28;20440;-75
2023/04/13 01:01:20;;;;;;;8.48;4.38;;;16.10;96.70;;;;;;5079591;28;20047;-75
2023/04/13 01:03:59;;;;;;;7.40;4.10;;;16.00;96.70;;;;;;5076777;28;20052;-74
2023/04/13 01:40:12;;;;;;;5.70;3.67;;;15.80;96.70;;;;;;5077230;28;20056;-75
2023/04/13 01:42:45;;;;;;;6.18;3.58;;;15.80;96.70;;;;;;5079296;28;20063;-75
2023/04/13 01:45:17;;;;;;;5.95;3.78;;;15.80;96.70;;;;;;5061769;28;20067;-74
2023/04/13 01:48:04;;;;;;;7.20;3.70;;;15.80;96.70;;;;;;5070821;28;20618;-74
2023/04/13 01:50:51;;;;;;;6.00;3.35;;;15.90;96.70;;;;;;5065643;28;20072;-74
2023/04/13 01:53:38;;;;;;;9.07;3.38;;;15.90;96.70;;;;;;5060560;28;20044;-74
2023/04/13 02:04:11;;;;;;;6.72;2.88;;;15.90;96.70;;;;;;5076862;28;20121;-74
2023/04/13 02:06:42;;;;;;;6.95;3.00;;;15.90;96.70;;;;;;5073003;28;20162;-74
2023/04/13 02:09:10;;;;;;;6.63;2.75;;;15.90;96.70;;;;;;5063033;28;20039;-74
2023/04/13 02:11:39;;;;;;;6.93;3.00;;;15.90;96.70;;;;;;5062189;28;20055;-75
2023/04/13 02:26:49;;;;;;;6.57;2.50;;;15.80;96.70;;;;;;5077512;28;20120;-75
2023/04/13 02:29:18;;;;;;;5.10;2.50;;;15.80;96.70;;;;;;5059875;28;20055;-75
2023/04/13 02:31:46;;;;;;;8.85;2.30;;;15.80;96.70;;;;;;5072185;28;20036;-75
2023/04/13 02:34:14;;;;;;;4.47;2.47;;;15.80;96.70;;;;;;5075397;28;20067;-74
2023/04/13 02:54:18;;;;;;;6.63;2.20;;;15.70;96.70;;;;;;5057923;28;20521;-75
2023/04/13 02:56:51;;;;;;;4.90;2.55;;;15.70;96.70;;;;;;5064295;28;20456;-74
2023/04/13 02:59:20;;;;;;;5.03;1.85;;;15.80;96.70;;;;;;5070702;28;20036;-75
2023/04/13 03:01:48;;;;;;;3.60;1.92;;;15.80;96.70;;;;;;5071577;28;20155;-75
2023/04/13 03:04:20;;;;;;;3.65;2.05;;;15.70;96.70;;;;;;5074410;28;20048;-74
2023/04/13 03:06:49;;;;;;;4.88;2.30;;;15.70;96.70;;;;;;5072024;28;20041;-75
2023/04/13 03:09:18;;;;;;;5.50;2.60;;;15.60;96.70;;;;;;5056704;28;20098;-74
2023/04/13 03:28:40;;;;;;;5.97;2.17;;;15.50;96.70;;;;;;5068997;28;20046;-75
2023/04/13 03:31:10;;;;;;;5.60;2.92;;;15.40;96.70;;;;;;5076566;28;20168;-74
2023/04/13 03:33:39;;;;;;;4.28;2.00;;;15.30;96.70;;;;;;5076723;28;20440;-74
2023/04/13 03:36:09;;;;;;;4.82;1.80;;;15.30;96.70;;;;;;5077093;28;20051;-74
2023/04/13 03:42:51;;;;;;;5.45;1.90;;;15.20;96.70;;;;;;5071083;28;20035;-75
2023/04/13 03:45:24;;;;;;;5.72;2.08;;;15.20;96.70;;;;;;5072374;28;20045;-74
2023/04/13 03:47:56;;;;;;;4.38;2.00;;;15.20;96.70;;;;;;5057494;28;20511;-75
2023/04/13 03:50:25;;;;;;;4.18;1.63;;;15.10;96.70;;;;;;5078825;28;20580;-75
2023/04/13 03:52:55;;;;;;;4.35;1.73;;;15.20;96.70;;;;;;5059553;28;20382;-74
2023/04/13 03:55:24;;;;;;;5.57;2.00;;;15.10;96.70;;;;;;5075337;28;20600;-75
2023/04/13 03:57:56;;;;;;;4.60;1.80;;;15.20;96.70;;;;;;5073633;28;20048;-74
2023/04/13 04:00:30;;;;;;;8.15;3.35;;;15.20;96.70;;;;;;5078891;28;20093;-75
2023/04/13 04:03:10;;;;;;;3.55;1.95;;;15.10;96.70;;;;;;5063107;28;20420;-74
2023/04/13 04:05:53;;;;;;;4.60;1.70;;;15.10;96.70;;;;;;5079569;28;20126;-74
2023/04/13 04:08:21;;;;;;;3.80;1.45;;;15.20;96.70;;;;;;5061697;28;20488;-75
2023/04/13 04:10:53;;;;;;;3.05;1.48;;;15.10;96.70;;;;;;5081027;28;20040;-74
2023/04/13 04:13:22;;;;;;;4.10;1.85;;;15.20;96.70;;;;;;5081807;28;20090;-74
2023/04/13 04:15:55;;;;;;;2.47;1.50;;;15.20;96.70;;;;;;5081225;28;20480;-74
2023/04/13 04:18:24;;;;;;;3.30;1.77;;;15.20;96.70;;;;;;5082960;28;20044;-75
2023/04/13 04:20:53;;;;;;;5.68;2.05;;;15.20;96.70;;;;;;5067729;28;20040;-80
2023/04/13 04:23:26;;;;;;;3.42;1.40;;;15.20;96.70;;;;;;5080939;28;20404;-74
2023/04/13 04:30:20;;;;;;;2.75;1.40;;;15.30;96.70;;;;;;5076525;28;20043;-74
2023/04/13 04:32:53;;;;;;;5.80;1.55;;;15.40;96.70;;;;;;5062383;28;20507;-75
2023/04/13 04:35:34;;;;;;;9.18;2.13;;;15.30;96.70;;;;;;5078280;28;20054;-75
2023/04/13 04:38:07;;;;;;;4.18;1.77;;;15.20;96.70;;;;;;5079880;28;20044;-74
2023/04/13 04:40:37;;;;;;;4.72;1.58;;;15.30;96.70;;;;;;5077136;28;20123;-75
2023/04/13 04:43:06;;;;;;;3.35;1.30;;;15.40;96.70;;;;;;5065899;28;20036;-75
2023/04/13 04:45:45;;;;;;;4.53;1.77;;;15.40;96.70;;;;;;5065051;28;20068;-76
2023/04/13 04:48:19;;;;;;;4.32;1.33;;;15.40;96.70;;;;;;5075404;28;20044;-75
2023/04/13 04:50:48;;;;;;;4.90;1.80;;;15.40;96.70;;;;;;5077312;28;20106;-74
2023/04/13 04:53:17;;;;;;;2.88;1.73;;;15.30;96.70;;;;;;5078625;28;20859;-75
2023/04/13 04:55:46;;;;;;;4.88;2.00;;;15.30;96.70;;;;;;5079175;28;20068;-74
2023/04/13 04:58:26;;;;;;;5.18;1.80;;;15.30;96.70;;;;;;5064741;28;20044;-75
2023/04/13 05:00:56;;;;;;;2.85;1.40;;;15.30;96.70;;;;;;5079270;28;20724;-75
2023/04/13 05:03:26;;;;;;;4.38;1.75;;;15.40;96.70;;;;;;5079770;28;20036;-74
2023/04/13 05:06:06;;;;;;;3.80;1.85;;;15.40;96.70;;;;;;5079945;28;20486;-75
2023/04/13 05:08:35;;;;;;;3.30;1.42;;;15.40;96.70;;;;;;5078286;28;20044;-75
2023/04/13 05:11:06;;;;;;;3.42;1.77;;;15.40;96.70;;;;;;5077518;28;20425;-74
2023/04/13 05:13:35;;;;;;;5.97;1.98;;;15.40;96.70;;;;;;5078421;28;20063;-75
2023/04/13 05:16:19;;;;;;;5.07;1.67;;;15.30;96.70;;;;;;5083358;28;20121;-75
2023/04/13 05:18:51;;;;;;;4.53;1.67;;;15.40;96.70;;;;;;5078177;28;20047;-75
2023/04/13 05:21:39;;;;;;;5.75;2.10;;;15.50;96.70;;;;;;5073273;28;20044;-75
2023/04/13 05:24:10;;;;;;;3.17;1.52;;;15.50;96.70;;;;;;5075466;28;20526;-75
2023/04/13 05:26:42;;;;;;;11.02;2.50;;;15.50;96.70;;;;;;5062713;28;20040;-74
2023/04/13 05:29:13;;;;;;;5.38;1.88;;;15.50;96.70;;;;;;5066022;28;20044;-74
2023/04/13 05:31:44;;;;;;;7.10;2.42;;;15.50;96.70;;;;;;5059682;28;20056;-75
2023/04/13 05:34:15;;;;;;;5.90;2.50;;;15.50;96.70;;;;;;5062677;28;20175;-75
2023/04/13 05:36:58;;;;;;;5.38;2.30;;;15.50;96.70;;;;;;5081933;28;20051;-75
2023/04/13 05:39:27;;;;;;;5.65;2.13;;;15.50;96.70;;;;;;5079760;28;20376;-74
2023/04/13 05:41:56;;;;;;;6.28;2.35;;;15.50;96.70;;;;;;5080565;28;20081;-75
2023/04/13 05:44:26;;;;;;;6.35;2.42;;;15.50;96.70;;;;;;5074891;28;20052;-75
2023/04/13 05:46:55;;;;;;;6.10;1.92;;;15.50;96.70;;;;;;5072221;28;20047;-74
2023/04/13 05:49:25;;;;;;;5.50;1.90;;;15.40;96.70;;;;;;5083718;28;20552;-74
2023/04/13 05:51:54;;;;;;;5.57;1.60;;;15.40;96.70;;;;;;5081166;28;20272;-74
2023/04/13 05:54:33;;;;;;;5.78;1.98;;;15.30;96.70;;;;;;5083571;28;20044;-74
2023/04/13 05:57:02;;;;;;;4.63;2.33;;;15.30;96.70;;;;;;5086053;28;20055;-74
2023/04/13 05:59:30;;;;;;;5.85;2.38;;;15.40;96.70;;;;;;5086279;28;20528;-74
2023/04/13 06:02:01;;;;;;;5.80;2.25;;;15.40;96.70;;;;;;5081943;28;20138;-74
2023/04/13 06:04:32;;;;;;;5.43;2.60;;;15.40;96.70;;;;;;5069084;28;20480;-75
2023/04/13 06:07:01;;;;;;;6.10;2.60;;;15.50;96.70;;;;;;5077784;28;20057;-75
2023/04/13 06:09:29;;;;;;;4.45;2.53;;;15.50;96.70;;;;;;5083278;28;20455;-74
2023/04/13 06:11:58;;;;;;;7.82;2.55;;;15.50;96.70;;;;;;5088109;28;20053;-74
2023/04/13 06:14:26;;;;;;;7.10;2.45;;;15.60;96.70;;;;;;5080061;28;20127;-74
2023/04/13 06:16:55;;;;;;;7.30;3.05;;;15.50;96.70;;;;;;5075815;28;20055;-75
2023/04/13 06:19:23;;;;;;;5.70;2.80;;;15.60;96.70;;;;;;5084484;28;20089;-74
2023/04/13 06:21:57;;;;;;;5.38;2.70;;;15.70;96.70;;;;;;5082376;28;20048;-74
2023/04/13 06:24:26;;;;;;;4.38;2.38;;;15.70;96.70;;;;;;5079500;28;20048;-74
2023/04/13 06:26:55;;;;;;;6.82;2.45;;;15.80;96.70;;;;;;5080929;28;20076;-74
2023/04/13 06:29:23;;;;;;;9.35;2.28;;;15.80;96.70;;;;;;5079193;28;20701;-73
2023/04/13 06:32:01;;;;;;;9.10;2.50;;;15.70;96.70;;;;;;5074252;28;20051;-73
2023/04/13 06:34:30;;;;;;;12.07;3.00;;;15.70;96.70;;;;;;5084228;28;20135;-73
2023/04/13 06:37:02;;;;;;;5.50;2.45;;;15.70;96.70;;;;;;5085671;28;20079;-73
2023/04/13 06:39:36;;;;;;;12.23;3.13;;;15.70;96.70;;;;;;5082448;28;20150;-73
2023/04/13 06:42:07;;;;;;;9.30;3.33;;;15.70;96.70;;;;;;5090119;28;20040;-73
2023/04/13 06:44:54;;;;;;;10.60;3.85;;;15.70;96.70;;;;;;5083108;28;20177;-74
2023/04/13 06:47:24;;;;;;;10.48;4.03;;;15.70;96.70;;;;;;5080828;28;20531;-75
2023/04/13 06:49:55;;;;;;;8.30;3.08;;;15.70;96.70;;;;;;5064707;28;20060;-73
2023/04/13 06:52:27;;;;;;;7.40;2.97;;;15.70;96.70;;;;;;5082470;28;20097;-73
2023/04/13 06:54:55;;;;;;;8.07;3.08;;;15.60;96.70;;;;;;5084740;28;20089;-73
2023/04/13 06:57:32;;;;;;;;;;;15.60;96.70;;;;;;5069127;28;20653;-74
2023/04/13 07:00:01;;;;;;;9.65;3.90;;;15.50;96.70;;;;;;5097705;28;19924;-74
2023/04/13 07:02:29;;;;;;;18.15;6.07;;;15.40;96.70;;;;;;5082080;28;20040;-73
2023/04/13 07:04:59;;;;;;;13.85;5.25;;;15.50;96.70;;;;;;5084266;28;20092;-74
2023/04/13 07:07:30;;;;;;;15.10;4.68;;;15.60;96.70;;;;;;5070211;28;20591;-73
2023/04/13 07:09:58;;;;;;;5.25;2.35;;;15.70;96.70;;;;;;5064296;28;20041;-76
2023/04/13 07:12:28;;;;;;;6.05;2.30;;;15.80;96.70;;;;;;5064795;28;20048;-73
2023/04/13 07:14:57;;;;;;;5.00;2.05;;;15.90;96.70;;;;;;5082252;28;20051;-73
2023/04/13 07:17:25;;;;;;;6.70;2.70;;;16.00;96.70;;;;;;5091288;28;20740;-74
2023/04/13 07:19:54;;;;;;;6.90;3.10;;;16.10;96.70;;;;;;5090611;28;20127;-73
2023/04/13 07:22:22;;;;;;;7.90;3.15;;;16.10;96.70;;;;;;5064242;28;20493;-75
2023/04/13 07:24:54;;;;;;;7.97;2.97;;;16.20;96.70;;;;;;5074244;28;20540;-75
2023/04/13 07:27:23;;;;;;;7.00;3.17;;;16.20;96.70;;;;;;5081147;28;20466;-75
2023/04/13 07:29:51;;;;;;;5.90;3.08;;;16.10;96.70;;;;;;5084856;28;20044;-74
2023/04/13 07:32:22;;;;;;;10.18;4.28;;;16.20;96.70;;;;;;5084845;28;20056;-75
2023/04/13 07:35:00;;;;;;;6.97;3.85;;;16.30;96.70;;;;;;5096216;28;20047;-75
2023/04/13 07:37:33;;;;;;;7.47;2.95;;;16.30;96.70;;;;;;5077485;28;20054;-75
2023/04/13 07:40:05;;;;;;;8.63;3.38;;;16.30;96.70;;;;;;5080134;28;20576;-74
2023/04/13 07:42:34;;;;;;;6.88;3.08;;;16.30;96.70;;;;;;5068109;28;20058;-74
2023/04/13 07:45:03;;;;;;;8.82;3.10;;;16.40;96.70;;;;;;5067804;28;20045;-75
2023/04/13 07:47:33;;;;;;;8.13;2.97;;;16.50;96.70;;;;;;5074449;28;20509;-75
2023/04/13 07:50:08;;;;;;;8.38;2.92;;;16.60;96.70;;;;;;5092111;28;20079;-75
2023/04/13 07:52:37;;;;;;;6.97;3.22;;;16.70;96.70;;;;;;5077798;28;20052;-74
2023/04/13 07:55:09;;;;;;;6.82;3.30;;;16.80;96.70;;;;;;5089256;28;20052;-74
2023/04/13 07:57:43;;;;;;;4.53;1.63;;;16.90;96.70;;;;;;5092663;28;20051;-73
2023/04/13 08:00:13;;;;;;;1.77;0.68;;;16.80;96.70;;;;;;5076246;28;20055;-74
2023/04/13 08:02:46;;;;;;;3.05;0.60;;;16.90;96.70;;;;;;5076270;28;20054;-74
2023/04/13 08:05:19;;;;;;;1.88;0.50;;;17.00;96.70;;;;;;5073486;28;20039;-74
2023/04/13 08:07:49;;;;;;;5.95;0.90;;;17.20;96.70;;;;;;5093942;28;20043;-74
2023/04/13 08:10:19;;;;;;;3.88;0.80;;;17.20;96.70;;;;;;5077624;28;20674;-74
2023/04/13 08:12:47;;;;;;;2.97;0.70;;;17.30;96.70;;;;;;5085100;28;20051;-74
2023/04/13 08:15:18;;;;;;;5.88;0.93;;;17.30;96.70;;;;;;5070739;28;20487;-73
2023/04/13 08:17:47;;;;;;;8.98;0.80;;;17.30;96.70;;;;;;5072850;28;20572;-74
2023/04/13 08:20:17;;;;;;;8.18;0.98;;;17.30;96.70;;;;;;5085875;28;20373;-73
2023/04/13 08:22:45;;;;;;;5.53;0.70;;;17.60;96.70;;;;;;5083770;28;20044;-74
2023/04/13 08:25:14;;;;;;;3.72;0.93;;;17.70;96.70;;;;;;5084971;28;20051;-74
2023/04/13 08:27:44;;;;;;;8.90;0.98;;;17.70;96.70;;;;;;5082654;28;20048;-74
2023/04/13 08:30:14;;;;;;;7.20;0.82;;;17.70;96.70;;;;;;5083304;28;20139;-74
2023/04/13 08:33:00;;;;;;;5.47;1.08;;;17.80;96.70;;;;;;5041414;28;20114;-74
2023/04/13 08:35:29;;;;;;;6.40;0.80;;;17.90;96.70;;;;;;5033753;28;20049;-75
2023/04/13 08:38:01;;;;;;;6.55;1.05;;;17.80;96.70;;;;;;5024226;28;20049;-74
2023/04/13 08:40:36;;;;;;;8.05;1.38;;;17.70;96.70;;;;;;5033508;28;20132;-74
2023/04/13 08:43:10;;;;;;;4.00;1.17;;;17.60;96.70;;;;;;5037974;28;20052;-74
2023/04/13 08:45:44;;;;;;;7.80;1.20;;;17.50;96.70;;;;;;5022349;28;20534;-75
2023/04/13 08:48:14;;;;;;;8.85;1.50;;;17.30;96.70;;;;;;5049822;28;20057;-75
2023/04/13 08:50:44;;;;;;;10.05;2.08;;;17.20;96.70;;;;;;5050022;28;20636;-74
2023/04/13 08:53:17;;;;;;;7.10;1.60;;;17.10;96.70;;;;;;5024308;28;20083;-74
2023/04/13 08:55:50;;;;;;;8.93;1.65;;;17.20;96.70;;;;;;5024589;28;20056;-73
2023/04/13 08:58:23;;;;;;;6.75;1.50;;;17.10;96.70;;;;;;5024164;28;20417;-74
2023/04/13 09:00:52;;;;;;;6.22;1.40;;;16.90;96.70;;;;;;5001159;28;20581;-74
2023/04/13 09:03:24;;;;;;;11.20;3.58;;;16.90;96.70;;;;;;5034009;28;20137;-73
2023/04/13 09:06:00;;;;;;;11.43;3.47;;;16.90;96.70;;;;;;5091758;28;20065;-73
2023/04/13 09:08:34;;;;;;;8.35;2.33;;;17.00;96.70;;;;;;5081566;28;20075;-74
2023/04/13 09:11:07;;;;;;;8.23;1.83;;;17.00;96.70;;;;;;5082658;28;20457;-73
2023/04/13 09:13:37;;;;;;;10.27;2.15;;;16.90;96.70;;;;;;5082641;28;20090;-73
2023/04/13 09:16:07;;;;;;;12.50;3.78;;;16.90;96.70;;;;;;5066245;28;20048;-73
2023/04/13 09:18:51;;;;;;;8.55;1.65;;;16.90;96.70;;;;;;5082326;28;20091;-73
2023/04/13 09:21:20;;;;;;;13.80;3.05;;;16.80;96.70;;;;;;5097062;28;20121;-74
2023/04/13 09:23:56;;;;;;;11.95;1.95;;;16.80;96.70;;;;;;5080195;28;20048;-74
2023/04/13 09:26:25;;;;;;;12.18;1.60;;;16.70;96.70;;;;;;5081831;28;20039;-74
2023/04/13 09:28:56;;;;;;;12.38;2.70;;;16.60;96.70;;;;;;5083077;28;20038;-73
2023/04/13 09:31:25;;;;;;;11.48;2.05;;;16.50;96.70;;;;;;5076644;28;20058;-73
2023/04/13 09:33:54;;;;;;;12.35;2.08;;;16.50;96.70;;;;;;5088414;28;20123;-75
2023/04/13 09:36:22;;;;;;;8.88;1.88;;;16.60;96.70;;;;;;5074603;28;20051;-73
2023/04/13 09:38:52;;;;;;;7.05;1.83;;;16.60;96.70;;;;;;5081979;28;20039;-73
2023/04/13 09:41:34;;;;;;;8.40;1.55;;;16.60;96.70;;;;;;5084048;28;20044;-73
2023/04/13 09:44:31;;;;;;;12.02;2.55;;;16.80;96.70;;;;;;5083555;28;20518;-74
2023/04/13 09:47:01;;;;;;;8.60;1.73;;;16.80;96.70;;;;;;5081464;28;20130;-74
2023/04/13 09:49:37;;;;;;;7.90;1.40;;;16.80;96.70;;;;;;5073952;28;20318;-74
2023/04/13 09:52:07;;;;;;;9.32;2.40;;;16.90;96.70;;;;;;5081790;28;20052;-73
2023/04/13 09:54:35;;;;;;;9.32;1.75;;;16.90;96.70;;;;;;5091276;28;20032;-74
2023/04/13 09:57:03;;;;;;;12.63;2.92;;;16.70;96.70;;;;;;5081549;28;20040;-74
2023/04/13 09:59:34;;;;;;;9.68;2.30;;;16.70;96.70;;;;;;5076906;28;20083;-75
2023/04/13 10:02:04;;;;;;;10.68;1.73;;;16.70;96.70;;;;;;5086261;28;20055;-74
2023/04/13 10:04:34;;;;;;;13.38;2.50;;;16.80;96.70;;;;;;5092047;28;20054;-74
2023/04/13 10:07:04;;;;;;;8.95;1.90;;;16.80;96.70;;;;;;5064651;28;20048;-74
2023/04/13 10:09:32;;;;;;;9.07;2.15;;;16.80;96.70;;;;;;5090045;28;20043;-74
2023/04/13 10:12:02;;;;;;;11.23;2.80;;;16.80;96.70;;;;;;5082702;28;20048;-74
2023/04/13 10:14:35;;;;;;;9.20;1.40;;;16.90;96.70;;;;;;5082608;28;21154;-74
2023/04/13 10:17:31;;;;;;;6.90;2.40;;;16.80;96.70;;;;;;5081680;28;20043;-75
2023/04/13 10:20:12;;;;;;;8.70;1.23;;;16.90;96.70;;;;;;5081516;28;20445;-74
2023/04/13 10:22:43;;;;;;;9.20;1.52;;;16.90;96.70;;;;;;5081404;28;20113;-74
2023/04/13 10:25:13;;;;;;;9.40;1.88;;;16.80;96.70;;;;;;5081167;28;20077;-73
2023/04/13 10:27:59;;;;;;;9.95;1.88;;;16.90;96.70;;;;;;5091915;28;20048;-74
2023/04/13 10:30:29;;;;;;;11.20;2.72;;;16.80;96.70;;;;;;5064480;28;20853;-73
2023/04/13 10:33:04;;;;;;;8.52;2.20;;;16.90;96.70;;;;;;5082765;28;20055;-74
2023/04/13 10:35:36;;;;;;;12.77;1.95;;;16.90;96.70;;;;;;5082118;28;20160;-73
2023/04/13 10:38:08;;;;;;;10.55;2.35;;;16.80;96.70;;;;;;5082644;28;20071;-74
2023/04/13 10:40:43;;;;;;;12.38;2.55;;;16.80;96.70;;;;;;5091873;28;20047;-74
2023/04/13 10:43:12;;;;;;;14.18;2.50;;;16.90;96.70;;;;;;5080629;28;20056;-74
2023/04/13 10:45:42;;;;;;;9.80;2.58;;;16.90;96.70;;;;;;5088099;28;20061;-74
2023/04/13 10:48:20;;;;;;;13.38;2.20;;;16.80;96.70;;;;;;5091155;28;20040;-75
2023/04/13 10:50:57;;;;;;;13.05;2.30;;;16.70;96.70;;;;;;5075958;28;20058;-74
2023/04/13 10:53:29;;;;;;;9.48;1.77;;;16.70;96.70;;;;;;5091466;28;20123;-74
2023/04/13 10:55:58;;;;;;;13.10;1.98;;;16.60;96.70;;;;;;5076504;28;20052;-74
2023/04/13 10:58:27;;;;;;;7.90;1.77;;;16.60;96.70;;;;;;5077211;28;20052;-74
2023/04/13 11:01:02;;;;;;;12.07;2.25;;;16.50;96.70;;;;;;5076199;28;20052;-73
2023/04/13 11:03:31;;;;;;;10.00;2.00;;;16.60;96.70;;;;;;5070029;28;20097;-75
2023/04/13 11:05:59;;;;;;;11.32;2.20;;;16.70;96.70;;;;;;5079428;28;20511;-74
2023/04/13 11:08:29;;;;;;;11.20;2.10;;;16.70;96.70;;;;;;5059286;28;20501;-74
2023/04/13 11:10:57;;;;;;;7.75;1.55;;;16.80;96.70;;;;;;5071467;28;20059;-74
2023/04/13 11:13:27;;;;;;;10.57;1.60;;;16.80;96.70;;;;;;5075567;28;20464;-73
2023/04/13 11:16:02;;;;;;;9.48;2.03;;;16.90;96.70;;;;;;5074751;28;20477;-73
2023/04/13 11:18:31;;;;;;;10.38;2.00;;;16.90;96.70;;;;;;5079945;28;20048;-73
2023/04/13 11:21:01;;;;;;;10.40;1.88;;;17.00;96.70;;;;;;5078583;28;20048;-74
2023/04/13 11:23:33;;;;;;;9.68;1.75;;;17.20;96.70;;;;;;5077342;28;20054;-74
2023/04/13 11:26:03;;;;;;;6.63;1.23;;;17.20;96.70;;;;;;5083171;28;20494;-73
2023/04/13 11:28:37;;;;;;;9.80;1.92;;;16.90;96.70;;;;;;5085209;28;20774;-73
2023/04/13 11:31:10;;;;;;;9.23;1.75;;;16.70;96.70;;;;;;5076247;28;20052;-75
2023/04/13 11:33:39;;;;;;;10.13;1.88;;;16.40;96.70;;;;;;5071230;28;20058;-74
2023/04/13 11:36:10;;;;;;;15.10;2.35;;;16.30;96.70;;;;;;5072347;28;21422;-73
2023/04/13 11:38:40;;;;;;;10.90;2.03;;;16.20;96.70;;;;;;5079899;28;20052;-74
2023/04/13 11:41:09;;;;;;;12.55;2.47;;;16.10;96.70;;;;;;5089681;28;20044;-74
2023/04/13 11:43:41;;;;;;;7.07;1.65;;;15.90;96.70;;;;;;5085120;28;20132;-74
2023/04/13 11:46:12;;;;;;;9.82;2.00;;;15.80;96.70;;;;;;5070553;28;20043;-74
2023/04/13 11:48:41;;;;;;;12.05;2.45;;;15.80;96.70;;;;;;5077219;28;20047;-73
2023/04/13 11:51:10;;;;;;;7.13;1.85;;;15.80;96.70;;;;;;5058955;28;20506;-74
2023/04/13 11:53:40;;;;;;;9.80;2.05;;;15.90;96.70;;;;;;5082226;28;20056;-73
2023/04/13 11:56:09;;;;;;;10.07;2.08;;;15.70;96.70;;;;;;5081540;28;20486;-74
2023/04/13 11:58:38;;;;;;;14.05;2.88;;;15.70;96.70;;;;;;5081568;28;20143;-73
2023/04/13 12:01:07;;;;;;;11.15;1.90;;;15.70;96.70;;;;;;5080782;28;20382;-73
2023/04/13 12:03:44;;;;;;;11.70;1.90;;;15.70;96.70;;;;;;5081818;28;20123;-73
2023/04/13 12:06:34;;;;;;;11.80;2.75;;;15.70;96.70;;;;;;5081303;28;20047;-73
2023/04/13 12:09:04;;;;;;;10.18;2.38;;;15.70;96.70;;;;;;5089504;28;20056;-73
2023/04/13 12:11:41;;;;;;;10.95;2.50;;;15.70;96.70;;;;;;5077383;28;20044;-74
2023/04/13 12:14:23;;;;;;;11.00;2.05;;;15.80;96.70;;;;;;5082646;28;20052;-73
2023/04/13 12:17:12;;;;;;;11.02;2.67;;;15.70;96.70;;;;;;5084648;28;20585;-73
2023/04/13 12:20:02;;;;;;;9.32;2.00;;;15.90;96.70;;;;;;5082933;28;20048;-73
2023/04/13 12:22:37;;;;;;;12.63;2.10;;;15.90;96.70;;;;;;5079855;28;20040;-73
2023/04/13 12:25:23;;;;;;;10.93;2.22;;;15.80;96.70;;;;;;5084211;28;20673;-73
2023/04/13 12:28:02;;;;;;;13.55;2.22;;;15.70;96.70;;;;;;5093796;28;20044;-73
2023/04/13 12:30:31;;;;;;;10.90;2.10;;;15.70;96.70;;;;;;5089760;28;20100;-75
2023/04/13 12:32:59;;;;;;;12.30;2.15;;;15.60;96.70;;;;;;5094096;28;20047;-74
2023/04/13 12:35:30;;;;;;;14.52;2.20;;;15.60;96.70;;;;;;5083695;28;21119;-73
2023/04/13 12:37:59;;;;;;;8.98;2.15;;;15.50;96.70;;;;;;5082679;28;20048;-72
2023/04/13 12:40:27;;;;;;;10.73;2.10;;;15.70;96.70;;;;;;5084250;28;20063;-72
2023/04/13 12:42:55;;;;;;;11.05;2.08;;;15.80;96.70;;;;;;5083260;28;20058;-73
2023/04/13 12:45:23;;;;;;;10.85;2.22;;;15.80;96.70;;;;;;5084962;28;20048;-74
2023/04/13 12:47:51;;;;;;;8.27;2.08;;;15.90;96.70;;;;;;5078327;28;20079;-73
2023/04/13 12:50:20;;;;;;;11.02;2.65;;;15.90;96.70;;;;;;5085034;28;20120;-74
2023/04/13 12:52:49;;;;;;;10.25;2.00;;;15.90;96.70;;;;;;5081870;28;20055;-73
2023/04/13 12:55:17;;;;;;;10.10;1.90;;;16.10;96.70;;;;;;5083076;28;20060;-73
2023/04/13 12:57:45;;;;;;;10.45;1.90;;;16.50;96.70;;;;;;5093241;28;20089;-74
2023/04/13 13:00:16;;;;;;;11.40;2.13;;;16.20;96.70;;;;;;5083214;28;20071;-73
2023/04/13 13:02:44;;;;;;;9.85;1.98;;;16.20;96.70;;;;;;5083151;28;20047;-74
2023/04/13 13:05:12;;;;;;;12.13;1.88;;;16.20;96.70;;;;;;5084790;28;20055;-74
2023/04/13 13:07:40;;;;;;;9.02;1.73;;;16.20;96.70;;;;;;5082017;28;20087;-74
2023/04/13 13:10:10;;;;;;;11.68;2.03;;;16.00;96.70;;;;;;5084417;28;20093;-73
2023/04/13 13:12:56;;;;;;;13.40;2.50;;;15.90;96.70;;;;;;5077247;28;20057;-74
2023/04/13 13:15:27;;;;;;;14.73;2.67;;;15.90;96.70;;;;;;5070376;28;20059;-74
2023/04/13 13:17:55;;;;;;;16.10;2.85;;;15.90;96.70;;;;;;5072250;28;20036;-74
2023/04/13 13:20:23;;;;;;;12.07;1.98;;;15.90;96.70;;;;;;5064316;28;20044;-74
2023/04/13 13:22:51;;;;;;;11.48;2.42;;;15.90;96.70;;;;;;5054020;28;20531;-74
2023/04/13 13:25:21;;;;;;;9.48;2.47;;;16.10;96.70;;;;;;5063543;28;20068;-74
2023/04/13 13:27:49;;;;;;;11.00;1.77;;;16.20;96.70;;;;;;5052351;28;20051;-74
2023/04/13 13:30:20;;;;;;;13.55;2.90;;;16.00;96.70;;;;;;5061318;28;20132;-74
2023/04/13 13:32:48;;;;;;;11.05;2.15;;;16.10;96.70;;;;;;5080606;28;20036;-74
2023/04/13 13:35:16;;;;;;;11.80;2.28;;;16.10;96.70;;;;;;5070427;28;20580;-74
2023/04/13 13:37:44;;;;;;;10.43;2.45;;;16.20;96.70;;;;;;5061936;28;20048;-74
2023/04/13 13:40:12;;;;;;;10.55;2.08;;;16.20;96.70;;;;;;5066207;28;20101;-74
2023/04/13 13:42:44;;;;;;;13.32;2.65;;;16.30;96.70;;;;;;5068431;28;20078;-74
2023/04/13 13:45:20;;;;;;;12.35;2.28;;;16.30;96.70;;;;;;5059880;28;20049;-74
2023/04/13 13:47:51;;;;;;;12.70;2.53;;;16.80;96.70;;;;;;5061797;28;20051;-74
2023/04/13 13:50:27;;;;;;;9.68;2.00;;;17.20;96.70;;;;;;5071699;28;20040;-74
2023/04/13 13:52:56;;;;;;;8.93;2.15;;;16.90;96.70;;;;;;5071907;28;20105;-74
2023/04/13 13:55:36;;;;;;;8.50;2.40;;;16.90;96.70;;;;;;5069337;28;20060;-74
2023/04/13 13:58:06;;;;;;;12.25;2.42;;;17.20;96.70;;;;;;5070835;28;20563;-74
2023/04/13 14:00:34;;;;;;;8.90;1.98;;;17.60;96.70;;;;;;5049388;28;20520;-73
2023/04/13 14:03:02;;;;;;;12.88;2.33;;;17.90;96.70;;;;;;5076905;28;20044;-74
2023/04/13 14:05:31;;;;;;;12.77;2.35;;;17.80;96.70;;;;;;5061003;28;20045;-74
2023/04/13 14:07:59;;;;;;;13.45;2.50;;;17.80;96.70;;;;;;5060233;28;20040;-74
2023/04/13 14:10:27;;;;;;;9.57;1.63;;;17.20;96.70;;;;;;5062811;28;20045;-74
2023/04/13 14:12:55;;;;;;;14.82;2.70;;;17.80;96.70;;;;;;5066311;28;20048;-74
2023/04/13 14:15:24;;;;;;;9.00;2.15;;;17.60;96.70;;;;;;5073822;28;20566;-74
2023/04/13 14:17:53;;;;;;;10.30;2.22;;;17.60;96.70;;;;;;5064852;28;20047;-73
2023/04/13 14:20:37;;;;;;;8.05;2.05;;;18.40;96.70;;;;;;5062172;28;20516;-74
2023/04/13 14:23:07;;;;;;;9.95;2.20;;;18.50;96.70;;;;;;5060651;28;20665;-74
2023/04/13 14:25:39;;;;;;;10.02;2.00;;;18.30;96.70;;;;;;5062219;28;20067;-74
2023/04/13 14:28:08;;;;;;;11.48;2.15;;;18.50;96.70;;;;;;5061408;28;20045;-74
2023/04/13 14:30:38;;;;;;;8.50;1.80;;;18.70;96.70;;;;;;5061671;28;20660;-74
2023/04/13 14:33:07;;;;;;;11.95;2.20;;;19.10;96.70;;;;;;5078829;28;20439;-73
2023/04/13 14:35:35;;;;;;;9.07;2.10;;;19.30;96.70;;;;;;5076780;28;20080;-75
2023/04/13 14:38:03;;;;;;;10.15;2.05;;;18.80;96.70;;;;;;5060804;28;20148;-75
2023/04/13 14:40:31;;;;;;;10.63;2.17;;;18.30;96.70;;;;;;5061639;28;20522;-74
2023/04/13 14:42:59;;;;;;;8.10;1.90;;;18.30;96.70;;;;;;5069825;28;20055;-75
2023/04/13 14:45:27;;;;;;;9.35;2.22;;;17.80;96.70;;;;;;5065771;28;20387;-74
2023/04/13 14:47:57;;;;;;;9.43;1.67;;;18.70;96.70;;;;;;5060203;28;20320;-74
2023/04/13 14:50:25;;;;;;;9.00;2.03;;;19.10;96.70;;;;;;5063463;28;20044;-74
2023/04/13 14:52:53;;;;;;;9.68;1.90;;;20.00;96.70;;;;;;5062340;28;20074;-74
2023/04/13 14:55:21;;;;;;;10.13;2.47;;;19.60;96.70;;;;;;5060524;28;20063;-74
2023/04/13 14:57:50;;;;;;;9.38;2.47;;;20.00;96.70;;;;;;5071259;28;20095;-74
2023/04/13 15:00:25;;;;;;;8.45;2.28;;;20.30;96.70;;;;;;5054439;28;20049;-74
2023/04/13 15:02:53;;;;;;;7.78;1.65;;;20.50;96.70;;;;;;5066656;28;20075;-74
2023/04/13 15:05:23;;;;;;;9.25;2.03;;;21.10;96.70;;;;;;5064921;28;20037;-74
2023/04/13 15:07:51;;;;;;;7.25;2.35;;;20.80;96.70;;;;;;5062429;28;20094;-74
2023/04/13 15:10:20;;;;;;;12.30;2.70;;;20.20;96.70;;;;;;5076886;28;20040;-74
2023/04/13 15:12:48;;;;;;;12.02;2.53;;;21.00;96.70;;;;;;5072871;28;20043;-74
2023/04/13 15:15:16;;;;;;;10.15;2.00;;;19.90;96.70;;;;;;5067948;28;20142;-75
2023/04/13 15:17:44;;;;;;;11.95;3.05;;;20.30;96.70;;;;;;5065873;28;20051;-74
2023/04/13 15:20:12;;;;;;;9.48;2.30;;;21.00;96.70;;;;;;5064385;28;20135;-75
2023/04/13 15:22:41;;;;;;;10.50;2.42;;;21.00;96.70;;;;;;5043012;28;20083;-74
2023/04/13 15:25:10;;;;;;;8.60;2.28;;;21.60;96.70;;;;;;5043833;28;20055;-76
2023/04/13 15:27:38;;;;;;;8.63;1.70;;;21.80;96.70;;;;;;5070687;28;20041;-75
2023/04/13 15:30:08;;;;;;;9.90;2.00;;;21.60;96.70;;;;;;5067420;28;20094;-74
2023/04/13 15:32:40;;;;;;;8.80;2.75;;;21.20;96.70;;;;;;5066969;28;20075;-74
2023/04/13 15:35:08;;;;;;;14.57;2.05;;;19.70;96.70;;;;;;5053452;28;20050;-74